Alwine Oldendorff — CQFL — position and weather

sailwx.info

Track history (hours):
 
Tides and Currents Weather Stations Pressure Air Temp Water Temp Dewpoint Dewpoint Depression Visibility Wind Speed Wind Dir Waves Ship Positions

Alwine Oldendorff

Last reported at 2018-Jun-14 22:45 UTC. Time now 2018-Jun-19 12:30 UTC.
Position N 37°34' W 000°58'.

Length 198 m; draft 12.8 m.

Type: Cargo ship. MMSI: 255805613.

Date/timePositionNaut miles runAvg speedWind from/ knotsBaromVisibWave heightAir tempDewpointWater temp
2018-Jun-14 22:45N 37°34' W 000°58'1 2.8
2018-Jun-14 22:24N 37°34' W 000°59'1 0.7
2018-Jun-14 21:35N 37°34' W 000°60'1 4.1
2018-Jun-14 21:24N 37°33' W 000°59'2 2.3
2018-Jun-14 20:33N 37°31' W 000°58'0 1.1
2018-Jun-14 20:30N 37°31' W 000°58'0 0.7
2018-Jun-14 20:00N 37°31' W 000°58'3 6.3
2018-Jun-14 19:30N 37°30' W 001°01'19411.4
2018-Jun-14 02:31N 36°05' W 004°39'213.3
2018-Jun-14 02:20N 36°05' W 004°42'2414.3
2018-Jun-14 00:40N 36°01' W 005°11'214.9
2018-Jun-14 00:30N 36°01' W 005°14'714.4
2018-Jun-14 00:01N 35°59' W 005°22'713.0
2018-Jun-13 23:30N 35°57' W 005°30'1510.2
2018-Jun-13 22:01N 35°55' W 005°49'110.2
2018-Jun-13 21:55N 35°55' W 005°50'  
2018-Jun-11 04:01N 37°27' W 021°22'013.0
2018-Jun-11 04:00N 37°27' W 021°23'611.5
2018-Jun-11 03:30N 37°28' W 021°30'611.4
2018-Jun-11 03:00N 37°28' W 021°37'711.3
2018-Jun-11 02:25N 37°28' W 021°45'511.5
2018-Jun-11 02:00N 37°28' W 021°51'611.5
2018-Jun-11 01:30N 37°29' W 021°59'611.6
2018-Jun-11 00:57N 37°29' W 022°07'511.5
2018-Jun-11 00:30N 37°30' W 022°13'811.4
2018-Jun-10 23:49N 37°30' W 022°23'1011.2
2018-Jun-10 22:54N 37°30' W 022°36'3211.7
2018-Jun-10 20:10N 37°31' W 023°16'311.6
2018-Jun-10 19:58N 37°31' W 023°19'1111.7
2018-Jun-10 19:00N 37°31' W 023°33'811.8
2018-Jun-10 18:20N 37°32' W 023°43'411.6
2018-Jun-10 17:59N 37°32' W 023°48'611.2
2018-Jun-10 17:29N 37°31' W 023°55'611.4
2018-Jun-10 17:00N 37°32' W 024°02'611.8
2018-Jun-10 16:30N 37°32' W 024°09'612.0
2018-Jun-10 16:00N 37°32' W 024°17'612.1
2018-Jun-10 15:30N 37°32' W 024°25'611.9
2018-Jun-10 15:00N 37°32' W 024°32'1211.8
2018-Jun-10 14:00N 37°32' W 024°47'611.7
2018-Jun-10 13:30N 37°32' W 024°54'611.3
2018-Jun-10 13:00N 37°32' W 025°01'611.5
2018-Jun-10 12:30N 37°33' W 025°09'611.7
2018-Jun-10 12:00N 37°33' W 025°16'611.6
2018-Jun-10 11:30N 37°33' W 025°23'611.6
2018-Jun-10 11:00N 37°33' W 025°31'611.7
2018-Jun-10 10:30N 37°33' W 025°38'612.0
2018-Jun-10 10:01N 37°33' W 025°45'611.8
2018-Jun-10 09:30N 37°33' W 025°53'611.9
2018-Jun-10 09:00N 37°33' W 026°00'611.7
2018-Jun-10 08:30N 37°33' W 026°08'611.6
2018-Jun-10 08:00N 37°33' W 026°15'611.3
2018-Jun-10 07:30N 37°33' W 026°22'611.2
2018-Jun-10 07:00N 37°33' W 026°29'611.3
2018-Jun-10 06:30N 37°33' W 026°37'611.3
2018-Jun-10 06:00N 37°33' W 026°44'611.5
2018-Jun-10 05:30N 37°33' W 026°51'611.4
2018-Jun-10 05:00N 37°33' W 026°58'611.4
2018-Jun-10 04:30N 37°32' W 027°05'1511.5
2018-Jun-10 03:14N 37°32' W 027°24'711.4
2018-Jun-10 02:39N 37°32' W 027°32'211.6
2018-Jun-10 02:30N 37°32' W 027°34'611.5
2018-Jun-10 02:00N 37°32' W 027°42'611.5
2018-Jun-10 01:30N 37°32' W 027°49'611.3
2018-Jun-10 01:00N 37°32' W 027°56'611.4
2018-Jun-10 00:30N 37°32' W 028°03'611.4
2018-Jun-10 00:00N 37°31' W 028°10'611.6
2018-Jun-09 23:30N 37°31' W 028°17'611.5
2018-Jun-09 23:00N 37°31' W 028°25'611.6
2018-Jun-09 22:30N 37°31' W 028°32'612.0
2018-Jun-09 22:00N 37°31' W 028°40'611.6
2018-Jun-09 21:30N 37°30' W 028°47'611.7
2018-Jun-09 21:00N 37°30' W 028°54'611.8
2018-Jun-09 20:30N 37°30' W 029°02'611.4
2018-Jun-09 20:00N 37°30' W 029°09'611.6
2018-Jun-09 19:31N 37°30' W 029°16'611.6
2018-Jun-09 19:01N 37°30' W 029°23'611.4
2018-Jun-09 18:30N 37°29' W 029°31'611.5
2018-Jun-09 18:00N 37°29' W 029°38'911.7
2018-Jun-09 17:15N 37°29' W 029°49'411.2
2018-Jun-09 16:53N 37°29' W 029°54'2211.5
2018-Jun-09 14:59N 37°28' W 030°22'711.5
2018-Jun-09 14:20N 37°27' W 030°31'511.4
2018-Jun-09 13:55N 37°27' W 030°37'1311.4
2018-Jun-09 12:49N 37°26' W 030°53'811.5
2018-Jun-09 12:07N 37°26' W 031°03'211.6
2018-Jun-09 11:57N 37°26' W 031°05'1011.5
2018-Jun-09 11:04N 37°25' W 031°18'111.8
2018-Jun-09 11:00N 37°25' W 031°19'611.7
2018-Jun-09 10:30N 37°25' W 031°26'611.3
2018-Jun-09 09:58N 37°25' W 031°34'511.1
2018-Jun-09 09:30N 37°24' W 031°41'511.1
2018-Jun-09 09:00N 37°24' W 031°47'911.0
2018-Jun-09 08:12N 37°24' W 031°59'211.4
2018-Jun-09 08:00N 37°24' W 032°01'611.4
2018-Jun-09 07:30N 37°23' W 032°08'4011.2
2018-Jun-09 03:57N 37°20' W 032°59'  
Track history (hours):
 
Tides and Currents Weather Stations Pressure Air Temp Water Temp Dewpoint Dewpoint Depression Visibility Wind Speed Wind Dir Waves Ship Positions

Alwine Oldendorff

Last reported at 2018-Jun-14 22:45 UTC. Time now 2018-Jun-19 12:30 UTC.
Position N 37°34' W 000°58'.

Length 198 m; draft 12.8 m.

Type: Cargo ship. MMSI: 255805613.

Date/timePositionNaut miles runAvg speedWind from/ knotsBaromVisibWave heightAir tempDewpointWater temp
2018-Jun-14 22:45N 37°34' W 000°58'1 2.8
2018-Jun-14 22:24N 37°34' W 000°59'1 0.7
2018-Jun-14 21:35N 37°34' W 000°60'1 4.1
2018-Jun-14 21:24N 37°33' W 000°59'2 2.3
2018-Jun-14 20:33N 37°31' W 000°58'0 1.1
2018-Jun-14 20:30N 37°31' W 000°58'0 0.7
2018-Jun-14 20:00N 37°31' W 000°58'3 6.3
2018-Jun-14 19:30N 37°30' W 001°01'19411.4
2018-Jun-14 02:31N 36°05' W 004°39'213.3
2018-Jun-14 02:20N 36°05' W 004°42'2414.3
2018-Jun-14 00:40N 36°01' W 005°11'214.9
2018-Jun-14 00:30N 36°01' W 005°14'714.4
2018-Jun-14 00:01N 35°59' W 005°22'713.0
2018-Jun-13 23:30N 35°57' W 005°30'1510.2
2018-Jun-13 22:01N 35°55' W 005°49'110.2
2018-Jun-13 21:55N 35°55' W 005°50'  
2018-Jun-11 04:01N 37°27' W 021°22'013.0
2018-Jun-11 04:00N 37°27' W 021°23'611.5
2018-Jun-11 03:30N 37°28' W 021°30'611.4
2018-Jun-11 03:00N 37°28' W 021°37'711.3
2018-Jun-11 02:25N 37°28' W 021°45'511.5
2018-Jun-11 02:00N 37°28' W 021°51'611.5
2018-Jun-11 01:30N 37°29' W 021°59'611.6
2018-Jun-11 00:57N 37°29' W 022°07'511.5
2018-Jun-11 00:30N 37°30' W 022°13'811.4
2018-Jun-10 23:49N 37°30' W 022°23'1011.2
2018-Jun-10 22:54N 37°30' W 022°36'3211.7
2018-Jun-10 20:10N 37°31' W 023°16'311.6
2018-Jun-10 19:58N 37°31' W 023°19'1111.7
2018-Jun-10 19:00N 37°31' W 023°33'811.8
2018-Jun-10 18:20N 37°32' W 023°43'411.6
2018-Jun-10 17:59N 37°32' W 023°48'611.2
2018-Jun-10 17:29N 37°31' W 023°55'611.4
2018-Jun-10 17:00N 37°32' W 024°02'611.8
2018-Jun-10 16:30N 37°32' W 024°09'612.0
2018-Jun-10 16:00N 37°32' W 024°17'612.1
2018-Jun-10 15:30N 37°32' W 024°25'611.9
2018-Jun-10 15:00N 37°32' W 024°32'1211.8
2018-Jun-10 14:00N 37°32' W 024°47'611.7
2018-Jun-10 13:30N 37°32' W 024°54'611.3
2018-Jun-10 13:00N 37°32' W 025°01'611.5
2018-Jun-10 12:30N 37°33' W 025°09'611.7
2018-Jun-10 12:00N 37°33' W 025°16'611.6
2018-Jun-10 11:30N 37°33' W 025°23'611.6
2018-Jun-10 11:00N 37°33' W 025°31'611.7
2018-Jun-10 10:30N 37°33' W 025°38'612.0
2018-Jun-10 10:01N 37°33' W 025°45'611.8
2018-Jun-10 09:30N 37°33' W 025°53'611.9
2018-Jun-10 09:00N 37°33' W 026°00'611.7
2018-Jun-10 08:30N 37°33' W 026°08'611.6
2018-Jun-10 08:00N 37°33' W 026°15'611.3
2018-Jun-10 07:30N 37°33' W 026°22'611.2
2018-Jun-10 07:00N 37°33' W 026°29'611.3
2018-Jun-10 06:30N 37°33' W 026°37'611.3
2018-Jun-10 06:00N 37°33' W 026°44'611.5
2018-Jun-10 05:30N 37°33' W 026°51'611.4
2018-Jun-10 05:00N 37°33' W 026°58'611.4
2018-Jun-10 04:30N 37°32' W 027°05'1511.5
2018-Jun-10 03:14N 37°32' W 027°24'711.4
2018-Jun-10 02:39N 37°32' W 027°32'211.6
2018-Jun-10 02:30N 37°32' W 027°34'611.5
2018-Jun-10 02:00N 37°32' W 027°42'611.5
2018-Jun-10 01:30N 37°32' W 027°49'611.3
2018-Jun-10 01:00N 37°32' W 027°56'611.4
2018-Jun-10 00:30N 37°32' W 028°03'611.4
2018-Jun-10 00:00N 37°31' W 028°10'611.6
2018-Jun-09 23:30N 37°31' W 028°17'611.5
2018-Jun-09 23:00N 37°31' W 028°25'611.6
2018-Jun-09 22:30N 37°31' W 028°32'612.0
2018-Jun-09 22:00N 37°31' W 028°40'611.6
2018-Jun-09 21:30N 37°30' W 028°47'611.7
2018-Jun-09 21:00N 37°30' W 028°54'611.8
2018-Jun-09 20:30N 37°30' W 029°02'611.4
2018-Jun-09 20:00N 37°30' W 029°09'611.6
2018-Jun-09 19:31N 37°30' W 029°16'611.6
2018-Jun-09 19:01N 37°30' W 029°23'611.4
2018-Jun-09 18:30N 37°29' W 029°31'611.5
2018-Jun-09 18:00N 37°29' W 029°38'911.7
2018-Jun-09 17:15N 37°29' W 029°49'411.2
2018-Jun-09 16:53N 37°29' W 029°54'2211.5
2018-Jun-09 14:59N 37°28' W 030°22'711.5
2018-Jun-09 14:20N 37°27' W 030°31'511.4
2018-Jun-09 13:55N 37°27' W 030°37'1311.4
2018-Jun-09 12:49N 37°26' W 030°53'811.5
2018-Jun-09 12:07N 37°26' W 031°03'211.6
2018-Jun-09 11:57N 37°26' W 031°05'1011.5
2018-Jun-09 11:04N 37°25' W 031°18'111.8
2018-Jun-09 11:00N 37°25' W 031°19'611.7
2018-Jun-09 10:30N 37°25' W 031°26'611.3
2018-Jun-09 09:58N 37°25' W 031°34'511.1
2018-Jun-09 09:30N 37°24' W 031°41'511.1
2018-Jun-09 09:00N 37°24' W 031°47'911.0
2018-Jun-09 08:12N 37°24' W 031°59'211.4
2018-Jun-09 08:00N 37°24' W 032°01'611.4
2018-Jun-09 07:30N 37°23' W 032°08'4011.2
2018-Jun-09 03:57N 37°20' W 032°59'  

Dump ship's entire track history